Terminal Aerodrome Forecast
Issued by NWS

Home | Current Version | Previous Version | Text Only | Print | Product List | Glossary On
Versions: 1 2 3 4 5 6 7 8 9 10 11 12 13
000
FTAK31 PAJN 260500
TAFAYA
TAF
PAYA 260538Z 2606/2706 VRB05KT P6SM SCT070 BKN100
     FM261400 09008KT P6SM BKN050 OVC100 WS020/07030KT
     FM262000 10012KT P6SM VCSH BKN040 OVC070 WS020/07025KT
     FM270200 11012KT P6SM -RA BKN030 OVC050 WS020/14025KT
      AMD LTD TO CLD VIS AND WIND 2606/2610=

USA.gov is the U.S. government's official web portal to all federal, state and local government web resources and services.